sensor_id;sensor_type;location;lat;lon;timestamp;P1;P2;P0
28647;PMS5003;17137;51.494;-0.262;2023-02-21T10:40:04;7;7;
28647;PMS5003;17137;51.494;-0.262;2023-02-21T10:40:47;6;6;
28647;PMS5003;17137;51.494;-0.262;2023-02-21T10:41:20;7;7;
28647;PMS5003;17137;51.494;-0.262;2023-02-21T10:41:51;8;8;
28647;PMS5003;17137;51.494;-0.262;2023-02-21T10:42:25;8;8;
28647;PMS5003;17137;51.494;-0.262;2023-02-21T10:43:01;8;8;
28647;PMS5003;17137;51.494;-0.262;2023-02-21T10:43:37;8;8;
28647;PMS5003;17137;51.494;-0.262;2023-02-21T10:44:11;8;8;
28647;PMS5003;17137;51.494;-0.262;2023-02-21T10:44:46;8;8;
28647;PMS5003;17137;51.494;-0.262;2023-02-21T10:45:17;8;8;
28647;PMS5003;17137;51.494;-0.262;2023-02-21T10:45:50;9;9;
28647;PMS5003;17137;51.494;-0.262;2023-02-21T10:46:27;10;10;
28647;PMS5003;17137;51.494;-0.262;2023-02-21T10:47:03;10;10;
28647;PMS5003;17137;51.494;-0.262;2023-02-21T10:47:44;10;10;
28647;PMS5003;17137;51.494;-0.262;2023-02-21T10:48:23;12;12;
28647;PMS5003;17137;51.494;-0.262;2023-02-21T10:48:58;13;13;
28647;PMS5003;17137;51.494;-0.262;2023-02-21T10:49:51;13;13;
28647;PMS5003;17137;51.494;-0.262;2023-02-21T10:50:36;12;12;
28647;PMS5003;17137;51.494;-0.262;2023-02-21T10:51:10;12;12;
28647;PMS5003;17137;51.494;-0.262;2023-02-21T10:51:42;12;12;
28647;PMS5003;17137;51.494;-0.262;2023-02-21T10:52:13;10;10;
28647;PMS5003;17137;51.494;-0.262;2023-02-21T10:52:46;10;10;
28647;PMS5003;17137;51.494;-0.262;2023-02-21T10:53:21;10;10;
28647;PMS5003;17137;51.494;-0.262;2023-02-21T10:54:15;8;8;
28647;PMS5003;17137;51.494;-0.262;2023-02-21T10:54:58;8;8;
28647;PMS5003;17137;51.494;-0.262;2023-02-21T10:55:30;8;8;
28647;PMS5003;17137;51.494;-0.262;2023-02-21T10:56:09;8;8;
28647;PMS5003;17137;51.494;-0.262;2023-02-21T10:57:06;8;8;
28647;PMS5003;17137;51.494;-0.262;2023-02-21T10:57:39;8;8;
28647;PMS5003;17137;51.494;-0.262;2023-02-21T10:58:17;8;8;
28647;PMS5003;17137;51.494;-0.262;2023-02-21T10:58:56;8;8;
28647;PMS5003;17137;51.494;-0.262;2023-02-21T10:59:31;8;8;
28647;PMS5003;17137;51.494;-0.262;2023-02-21T11:00:04;8;8;
28647;PMS5003;17137;51.494;-0.262;2023-02-21T11:00:36;8;8;
28647;PMS5003;17137;51.494;-0.262;2023-02-21T11:01:11;8;8;
28647;PMS5003;17137;51.494;-0.262;2023-02-21T11:01:44;8;8;
28647;PMS5003;17137;51.494;-0.262;2023-02-21T11:02:31;8;8;
28647;PMS5003;17137;51.494;-0.262;2023-02-21T11:03:05;8;8;
28647;PMS5003;17137;51.494;-0.262;2023-02-21T11:03:42;8;8;
28647;PMS5003;17137;51.494;-0.262;2023-02-21T11:04:23;8;8;
28647;PMS5003;17137;51.494;-0.262;2023-02-21T11:05:01;8;8;
28647;PMS5003;17137;51.494;-0.262;2023-02-21T11:05:38;9;9;
28647;PMS5003;17137;51.494;-0.262;2023-02-21T11:06:08;9;9;
28647;PMS5003;17137;51.494;-0.262;2023-02-21T11:06:50;9;9;
28647;PMS5003;17137;51.494;-0.262;2023-02-21T11:07:23;10;10;
28647;PMS5003;17137;51.494;-0.262;2023-02-21T11:07:56;10;10;
28647;PMS5003;17137;51.494;-0.262;2023-02-21T11:08:33;10;10;
28647;PMS5003;17137;51.494;-0.262;2023-02-21T11:09:23;10;10;
28647;PMS5003;17137;51.494;-0.262;2023-02-21T11:09:59;10;10;
28647;PMS5003;17137;51.494;-0.262;2023-02-21T11:10:30;10;10;
28647;PMS5003;17137;51.494;-0.262;2023-02-21T11:11:03;10;10;
28647;PMS5003;17137;51.494;-0.262;2023-02-21T11:11:35;10;10;
28647;PMS5003;17137;51.494;-0.262;2023-02-21T11:12:18;10;10;
28647;PMS5003;17137;51.494;-0.262;2023-02-21T11:13:00;12;12;
28647;PMS5003;17137;51.494;-0.262;2023-02-21T11:13:32;12;12;
28647;PMS5003;17137;51.494;-0.262;2023-02-21T11:14:12;12;12;
28647;PMS5003;17137;51.494;-0.262;2023-02-21T11:15:14;12;12;
28647;PMS5003;17137;51.494;-0.262;2023-02-21T11:15:47;12;12;
28647;PMS5003;17137;51.494;-0.262;2023-02-21T11:16:35;12;12;
28647;PMS5003;17137;51.494;-0.262;2023-02-21T11:17:06;14;13;
28647;PMS5003;17137;51.494;-0.262;2023-02-21T11:17:42;14;13;
28647;PMS5003;17137;51.494;-0.262;2023-02-21T11:18:14;14;13;
28647;PMS5003;17137;51.494;-0.262;2023-02-21T11:18:46;14;12;
28647;PMS5003;17137;51.494;-0.262;2023-02-21T11:19:41;14;12;
28647;PMS5003;17137;51.494;-0.262;2023-02-21T11:20:15;14;12;
28647;PMS5003;17137;51.494;-0.262;2023-02-21T11:20:48;15;13;
28647;PMS5003;17137;51.494;-0.262;2023-02-21T11:21:20;15;13;
28647;PMS5003;17137;51.494;-0.262;2023-02-21T11:21:52;15;13;
28647;PMS5003;17137;51.494;-0.262;2023-02-21T11:22:25;14;13;
28647;PMS5003;17137;51.494;-0.262;2023-02-21T11:23:16;14;13;
28647;PMS5003;17137;51.494;-0.262;2023-02-21T11:23:51;14;13;
28647;PMS5003;17137;51.494;-0.262;2023-02-21T11:24:24;14;12;
28647;PMS5003;17137;51.494;-0.262;2023-02-21T11:24:57;14;12;
28647;PMS5003;17137;51.494;-0.262;2023-02-21T11:25:31;14;12;
28647;PMS5003;17137;51.494;-0.262;2023-02-21T11:26:09;14;13;
28647;PMS5003;17137;51.494;-0.262;2023-02-21T11:26:43;14;13;
28647;PMS5003;17137;51.494;-0.262;2023-02-21T11:27:16;14;13;
28647;PMS5003;17137;51.494;-0.262;2023-02-21T11:27:57;14;13;
28647;PMS5003;17137;51.494;-0.262;2023-02-21T11:28:30;14;13;
28647;PMS5003;17137;51.494;-0.262;2023-02-21T11:29:07;14;13;
28647;PMS5003;17137;51.494;-0.262;2023-02-21T11:29:42;15;13;
28647;PMS5003;17137;51.494;-0.262;2023-02-21T11:30:46;15;13;
28647;PMS5003;17137;51.494;-0.262;2023-02-21T11:31:32;16;14;
28647;PMS5003;17137;51.494;-0.262;2023-02-21T11:32:08;16;14;
28647;PMS5003;17137;51.494;-0.262;2023-02-21T11:32:40;16;14;
28647;PMS5003;17137;51.494;-0.262;2023-02-21T11:33:17;15;14;
28647;PMS5003;17137;51.494;-0.262;2023-02-21T11:33:54;15;14;
28647;PMS5003;17137;51.494;-0.262;2023-02-21T11:34:27;15;14;
28647;PMS5003;17137;51.494;-0.262;2023-02-21T11:35:01;14;14;
28647;PMS5003;17137;51.494;-0.262;2023-02-21T11:35:36;14;14;
28647;PMS5003;17137;51.494;-0.262;2023-02-21T11:36:13;14;14;
28647;PMS5003;17137;51.494;-0.262;2023-02-21T11:36:45;15;14;
28647;PMS5003;17137;51.494;-0.262;2023-02-21T11:37:16;15;14;
28647;PMS5003;17137;51.494;-0.262;2023-02-21T11:37:49;15;14;
28647;PMS5003;17137;51.494;-0.262;2023-02-21T11:38:30;14;13;
28647;PMS5003;17137;51.494;-0.262;2023-02-21T11:39:03;14;13;
28647;PMS5003;17137;51.494;-0.262;2023-02-21T11:39:35;14;13;
28647;PMS5003;17137;51.494;-0.262;2023-02-21T11:40:09;15;14;
28647;PMS5003;17137;51.494;-0.262;2023-02-21T11:40:52;15;14;
28647;PMS5003;17137;51.494;-0.262;2023-02-21T11:41:34;15;14;
28647;PMS5003;17137;51.494;-0.262;2023-02-21T11:42:23;15;14;
28647;PMS5003;17137;51.494;-0.262;2023-02-21T11:43:28;15;14;
28647;PMS5003;17137;51.494;-0.262;2023-02-21T11:44:20;15;14;
28647;PMS5003;17137;51.494;-0.262;2023-02-21T11:45:01;14;13;
28647;PMS5003;17137;51.494;-0.262;2023-02-21T11:45:43;14;13;
28647;PMS5003;17137;51.494;-0.262;2023-02-21T11:46:41;14;13;
28647;PMS5003;17137;51.494;-0.262;2023-02-21T11:47:16;15;14;
28647;PMS5003;17137;51.494;-0.262;2023-02-21T11:47:53;15;14;
28647;PMS5003;17137;51.494;-0.262;2023-02-21T11:48:32;16;15;
28647;PMS5003;17137;51.494;-0.262;2023-02-21T11:49:10;17;16;
28647;PMS5003;17137;51.494;-0.262;2023-02-21T11:49:53;18;17;
28647;PMS5003;17137;51.494;-0.262;2023-02-21T11:50:33;17;17;
28647;PMS5003;17137;51.494;-0.262;2023-02-21T11:51:15;18;18;
28647;PMS5003;17137;51.494;-0.262;2023-02-21T11:51:55;18;18;
28647;PMS5003;17137;51.494;-0.262;2023-02-21T11:52:31;18;18;
28647;PMS5003;17137;51.494;-0.262;2023-02-21T11:53:09;20;20;
28647;PMS5003;17137;51.494;-0.262;2023-02-21T11:53:47;20;20;
28647;PMS5003;17137;51.494;-0.262;2023-02-21T11:54:17;20;20;
28647;PMS5003;17137;51.494;-0.262;2023-02-21T11:54:50;18;18;
28647;PMS5003;17137;51.494;-0.262;2023-02-21T11:55:22;18;18;
28647;PMS5003;17137;51.494;-0.262;2023-02-21T11:55:56;18;18;
28647;PMS5003;17137;51.494;-0.262;2023-02-21T11:56:34;17;17;
28647;PMS5003;17137;51.494;-0.262;2023-02-21T11:57:14;17;17;
28647;PMS5003;17137;51.494;-0.262;2023-02-21T11:57:57;17;17;
28647;PMS5003;17137;51.494;-0.262;2023-02-21T11:58:36;16;16;
28647;PMS5003;17137;51.494;-0.262;2023-02-21T11:59:22;16;16;
28647;PMS5003;17137;51.494;-0.262;2023-02-21T12:00:02;16;16;
28647;PMS5003;17137;51.494;-0.262;2023-02-21T12:00:46;15;15;
28647;PMS5003;17137;51.494;-0.262;2023-02-21T12:01:23;15;15;
28647;PMS5003;17137;51.494;-0.262;2023-02-21T12:02:13;15;15;
28647;PMS5003;17137;51.494;-0.262;2023-02-21T12:03:03;15;15;
28647;PMS5003;17137;51.494;-0.262;2023-02-21T12:03:49;15;15;
28647;PMS5003;17137;51.494;-0.262;2023-02-21T12:04:38;15;15;
28647;PMS5003;17137;51.494;-0.262;2023-02-21T12:05:53;16;15;
28647;PMS5003;17137;51.494;-0.262;2023-02-21T12:06:33;16;15;
28647;PMS5003;17137;51.494;-0.262;2023-02-21T12:07:12;16;15;
28647;PMS5003;17137;51.494;-0.262;2023-02-21T12:07:51;16;14;
28647;PMS5003;17137;51.494;-0.262;2023-02-21T12:08:36;16;14;
28647;PMS5003;17137;51.494;-0.262;2023-02-21T12:09:14;16;14;
28647;PMS5003;17137;51.494;-0.262;2023-02-21T12:09:50;14;13;
28647;PMS5003;17137;51.494;-0.262;2023-02-21T12:10:32;14;13;
28647;PMS5003;17137;51.494;-0.262;2023-02-21T12:11:15;14;13;
28647;PMS5003;17137;51.494;-0.262;2023-02-21T12:11:57;16;13;
28647;PMS5003;17137;51.494;-0.262;2023-02-21T12:12:38;16;13;
28647;PMS5003;17137;51.494;-0.262;2023-02-21T12:13:18;16;13;
28647;PMS5003;17137;51.494;-0.262;2023-02-21T12:13:59;16;13;
28647;PMS5003;17137;51.494;-0.262;2023-02-21T12:14:44;16;13;
28647;PMS5003;17137;51.494;-0.262;2023-02-21T12:15:23;16;13;
28647;PMS5003;17137;51.494;-0.262;2023-02-21T12:16:00;16;13;
28647;PMS5003;17137;51.494;-0.262;2023-02-21T12:16:41;16;13;
28647;PMS5003;17137;51.494;-0.262;2023-02-21T12:17:26;16;13;
28647;PMS5003;17137;51.494;-0.262;2023-02-21T12:18:14;18;14;
28647;PMS5003;17137;51.494;-0.262;2023-02-21T12:19:00;18;14;
28647;PMS5003;17137;51.494;-0.262;2023-02-21T12:19:47;18;14;
28647;PMS5003;17137;51.494;-0.262;2023-02-21T12:20:34;19;15;
28647;PMS5003;17137;51.494;-0.262;2023-02-21T12:21:27;19;15;
28647;PMS5003;17137;51.494;-0.262;2023-02-21T12:22:12;19;15;
28647;PMS5003;17137;51.494;-0.262;2023-02-21T12:22:57;20;15;
28647;PMS5003;17137;51.494;-0.262;2023-02-21T12:23:34;20;15;
28647;PMS5003;17137;51.494;-0.262;2023-02-21T12:24:20;20;15;
28647;PMS5003;17137;51.494;-0.262;2023-02-21T12:25:05;19;15;
28647;PMS5003;17137;51.494;-0.262;2023-02-21T12:25:50;19;15;
28647;PMS5003;17137;51.494;-0.262;2023-02-21T12:26:33;19;15;
28647;PMS5003;17137;51.494;-0.262;2023-02-21T12:27:16;17;14;
28647;PMS5003;17137;51.494;-0.262;2023-02-21T12:27:54;17;14;
28647;PMS5003;17137;51.494;-0.262;2023-02-21T12:28:32;17;14;
28647;PMS5003;17137;51.494;-0.262;2023-02-21T12:29:20;18;15;
28647;PMS5003;17137;51.494;-0.262;2023-02-21T12:30:08;18;15;
28647;PMS5003;17137;51.494;-0.262;2023-02-21T12:30:56;18;15;
28647;PMS5003;17137;51.494;-0.262;2023-02-21T12:31:40;19;16;
28647;PMS5003;17137;51.494;-0.262;2023-02-21T12:32:28;19;16;
28647;PMS5003;17137;51.494;-0.262;2023-02-21T12:33:18;19;16;
28647;PMS5003;17137;51.494;-0.262;2023-02-21T12:34:03;17;15;
28647;PMS5003;17137;51.494;-0.262;2023-02-21T12:34:48;17;15;
28647;PMS5003;17137;51.494;-0.262;2023-02-21T12:35:38;17;15;
28647;PMS5003;17137;51.494;-0.262;2023-02-21T12:36:27;17;15;
28647;PMS5003;17137;51.494;-0.262;2023-02-21T12:37:12;17;15;
28647;PMS5003;17137;51.494;-0.262;2023-02-21T12:37:52;17;15;
28647;PMS5003;17137;51.494;-0.262;2023-02-21T12:38:33;18;15;
28647;PMS5003;17137;51.494;-0.262;2023-02-21T12:39:13;18;15;
28647;PMS5003;17137;51.494;-0.262;2023-02-21T12:39:55;18;15;
28647;PMS5003;17137;51.494;-0.262;2023-02-21T12:40:35;16;14;
28647;PMS5003;17137;51.494;-0.262;2023-02-21T12:41:14;16;14;
28647;PMS5003;17137;51.494;-0.262;2023-02-21T12:42:04;16;14;
28647;PMS5003;17137;51.494;-0.262;2023-02-21T12:42:52;17;14;
28647;PMS5003;17137;51.494;-0.262;2023-02-21T12:43:36;17;14;
28647;PMS5003;17137;51.494;-0.262;2023-02-21T12:44:18;17;14;
28647;PMS5003;17137;51.494;-0.262;2023-02-21T12:44:55;16;14;
28647;PMS5003;17137;51.494;-0.262;2023-02-21T12:45:40;16;14;
28647;PMS5003;17137;51.494;-0.262;2023-02-21T12:46:20;16;14;
28647;PMS5003;17137;51.494;-0.262;2023-02-21T12:46:57;17;15;
28647;PMS5003;17137;51.494;-0.262;2023-02-21T12:47:31;17;15;
28647;PMS5003;17137;51.494;-0.262;2023-02-21T12:48:07;17;15;
28647;PMS5003;17137;51.494;-0.262;2023-02-21T12:48:46;17;15;
28647;PMS5003;17137;51.494;-0.262;2023-02-21T12:49:23;17;15;
28647;PMS5003;17137;51.494;-0.262;2023-02-21T12:49:59;17;15;
28647;PMS5003;17137;51.494;-0.262;2023-02-21T12:50:34;16;14;
28647;PMS5003;17137;51.494;-0.262;2023-02-21T12:51:08;16;14;
28647;PMS5003;17137;51.494;-0.262;2023-02-21T12:51:43;16;14;
28647;PMS5003;17137;51.494;-0.262;2023-02-21T12:52:19;15;14;
28647;PMS5003;17137;51.494;-0.262;2023-02-21T12:52:55;15;14;
28647;PMS5003;17137;51.494;-0.262;2023-02-21T12:53:31;15;14;
28647;PMS5003;17137;51.494;-0.262;2023-02-21T12:54:06;16;14;
28647;PMS5003;17137;51.494;-0.262;2023-02-21T12:54:44;16;14;
28647;PMS5003;17137;51.494;-0.262;2023-02-21T12:55:20;16;14;
28647;PMS5003;17137;51.494;-0.262;2023-02-21T12:55:58;16;14;
28647;PMS5003;17137;51.494;-0.262;2023-02-21T12:56:35;16;14;
28647;PMS5003;17137;51.494;-0.262;2023-02-21T12:57:11;16;14;
28647;PMS5003;17137;51.494;-0.262;2023-02-21T12:57:48;15;15;
28647;PMS5003;17137;51.494;-0.262;2023-02-21T12:58:25;15;15;
28647;PMS5003;17137;51.494;-0.262;2023-02-21T12:59:02;15;15;
28647;PMS5003;17137;51.494;-0.262;2023-02-21T12:59:45;19;14;
28647;PMS5003;17137;51.494;-0.262;2023-02-21T13:00:24;19;14;
28647;PMS5003;17137;51.494;-0.262;2023-02-21T13:01:06;19;14;
28647;PMS5003;17137;51.494;-0.262;2023-02-21T13:01:40;20;14;
28647;PMS5003;17137;51.494;-0.262;2023-02-21T13:02:18;20;14;
28647;PMS5003;17137;51.494;-0.262;2023-02-21T13:02:58;20;14;
28647;PMS5003;17137;51.494;-0.262;2023-02-21T13:03:38;19;14;
28647;PMS5003;17137;51.494;-0.262;2023-02-21T13:04:23;19;14;
28647;PMS5003;17137;51.494;-0.262;2023-02-21T13:05:05;19;14;
28647;PMS5003;17137;51.494;-0.262;2023-02-21T13:05:40;20;14;
28647;PMS5003;17137;51.494;-0.262;2023-02-21T13:06:14;20;14;
28647;PMS5003;17137;51.494;-0.262;2023-02-21T13:06:50;20;14;
28647;PMS5003;17137;51.494;-0.262;2023-02-21T13:07:28;19;13;
28647;PMS5003;17137;51.494;-0.262;2023-02-21T13:08:05;19;13;
28647;PMS5003;17137;51.494;-0.262;2023-02-21T13:08:46;19;13;
28647;PMS5003;17137;51.494;-0.262;2023-02-21T13:09:29;19;13;
28647;PMS5003;17137;51.494;-0.262;2023-02-21T13:10:04;19;13;
28647;PMS5003;17137;51.494;-0.262;2023-02-21T13:10:47;19;13;
28647;PMS5003;17137;51.494;-0.262;2023-02-21T13:11:24;19;14;
28647;PMS5003;17137;51.494;-0.262;2023-02-21T13:11:59;19;14;
28647;PMS5003;17137;51.494;-0.262;2023-02-21T13:12:36;19;14;
28647;PMS5003;17137;51.494;-0.262;2023-02-21T13:13:12;20;13;
28647;PMS5003;17137;51.494;-0.262;2023-02-21T13:13:47;20;13;
28647;PMS5003;17137;51.494;-0.262;2023-02-21T13:14:19;20;13;
28647;PMS5003;17137;51.494;-0.262;2023-02-21T13:14:55;20;13;
28647;PMS5003;17137;51.494;-0.262;2023-02-21T13:15:29;20;13;
28647;PMS5003;17137;51.494;-0.262;2023-02-21T13:16:01;20;13;
28647;PMS5003;17137;51.494;-0.262;2023-02-21T13:16:33;20;14;
28647;PMS5003;17137;51.494;-0.262;2023-02-21T13:17:04;20;14;
28647;PMS5003;17137;51.494;-0.262;2023-02-21T13:17:39;20;14;
28647;PMS5003;17137;51.494;-0.262;2023-02-21T13:18:14;17;14;
28647;PMS5003;17137;51.494;-0.262;2023-02-21T13:18:49;17;14;
28647;PMS5003;17137;51.494;-0.262;2023-02-21T13:19:23;17;14;
28647;PMS5003;17137;51.494;-0.262;2023-02-21T13:19:58;15;14;
28647;PMS5003;17137;51.494;-0.262;2023-02-21T13:20:33;15;14;
28647;PMS5003;17137;51.494;-0.262;2023-02-21T13:21:08;15;14;
28647;PMS5003;17137;51.494;-0.262;2023-02-21T13:21:55;16;14;
28647;PMS5003;17137;51.494;-0.262;2023-02-21T13:25:17;16;14;
28647;PMS5003;17137;51.494;-0.262;2023-02-21T13:25:58;16;13;
28647;PMS5003;17137;51.494;-0.262;2023-02-21T13:26:45;16;13;
28647;PMS5003;17137;51.494;-0.262;2023-02-21T13:27:31;16;13;
28647;PMS5003;17137;51.494;-0.262;2023-02-21T13:28:11;16;13;
28647;PMS5003;17137;51.494;-0.262;2023-02-21T13:28:50;16;13;
28647;PMS5003;17137;51.494;-0.262;2023-02-21T13:29:22;16;13;
28647;PMS5003;17137;51.494;-0.262;2023-02-21T13:29:57;16;13;
28647;PMS5003;17137;51.494;-0.262;2023-02-21T13:30:36;16;13;
28647;PMS5003;17137;51.494;-0.262;2023-02-21T13:31:17;16;13;
28647;PMS5003;17137;51.494;-0.262;2023-02-21T13:31:54;15;13;
28647;PMS5003;17137;51.494;-0.262;2023-02-21T13:32:28;15;13;
28647;PMS5003;17137;51.494;-0.262;2023-02-21T13:33:19;15;13;
28647;PMS5003;17137;51.494;-0.262;2023-02-21T13:33:54;15;13;
28647;PMS5003;17137;51.494;-0.262;2023-02-21T13:34:28;15;13;
28647;PMS5003;17137;51.494;-0.262;2023-02-21T13:35:04;15;13;
28647;PMS5003;17137;51.494;-0.262;2023-02-21T13:35:38;14;13;
28647;PMS5003;17137;51.494;-0.262;2023-02-21T13:36:15;14;13;
28647;PMS5003;17137;51.494;-0.262;2023-02-21T13:36:50;14;13;
28647;PMS5003;17137;51.494;-0.262;2023-02-21T13:37:22;15;13;
28647;PMS5003;17137;51.494;-0.262;2023-02-21T13:37:54;15;13;
28647;PMS5003;17137;51.494;-0.262;2023-02-21T13:38:27;15;13;
28647;PMS5003;17137;51.494;-0.262;2023-02-21T13:39:03;14;12;
28647;PMS5003;17137;51.494;-0.262;2023-02-21T13:39:40;14;12;
28647;PMS5003;17137;51.494;-0.262;2023-02-21T13:40:17;14;12;
28647;PMS5003;17137;51.494;-0.262;2023-02-21T13:40:51;14;12;
28647;PMS5003;17137;51.494;-0.262;2023-02-21T13:41:23;14;12;
28647;PMS5003;17137;51.494;-0.262;2023-02-21T13:42:00;14;12;
28647;PMS5003;17137;51.494;-0.262;2023-02-21T13:42:35;13;10;
28647;PMS5003;17137;51.494;-0.262;2023-02-21T13:43:09;13;10;
28647;PMS5003;17137;51.494;-0.262;2023-02-21T13:43:44;13;10;
28647;PMS5003;17137;51.494;-0.262;2023-02-21T13:44:21;12;10;
28647;PMS5003;17137;51.494;-0.262;2023-02-21T13:45:04;12;10;
28647;PMS5003;17137;51.494;-0.262;2023-02-21T13:45:42;12;10;
28647;PMS5003;17137;51.494;-0.262;2023-02-21T13:47:18;12;12;
28647;PMS5003;17137;51.494;-0.262;2023-02-21T13:48:09;12;12;
28647;PMS5003;17137;51.494;-0.262;2023-02-21T13:49:35;12;12;
28647;PMS5003;17137;51.494;-0.262;2023-02-21T13:50:46;13;12;
28647;PMS5003;17137;51.494;-0.262;2023-02-21T13:51:43;13;12;
28647;PMS5003;17137;51.494;-0.262;2023-02-21T13:52:24;13;12;
28647;PMS5003;17137;51.494;-0.262;2023-02-21T13:53:11;13;13;
28647;PMS5003;17137;51.494;-0.262;2023-02-21T13:54:03;13;13;
28647;PMS5003;17137;51.494;-0.262;2023-02-21T13:54:56;13;13;
28647;PMS5003;17137;51.494;-0.262;2023-02-21T13:56:10;13;13;
28647;PMS5003;17137;51.494;-0.262;2023-02-21T13:56:43;13;13;
28647;PMS5003;17137;51.494;-0.262;2023-02-21T13:57:28;13;13;
28647;PMS5003;17137;51.494;-0.262;2023-02-21T13:58:34;13;13;
28647;PMS5003;17137;51.494;-0.262;2023-02-21T13:59:29;13;13;
28647;PMS5003;17137;51.494;-0.262;2023-02-21T14:00:24;13;13;
28647;PMS5003;17137;51.494;-0.262;2023-02-21T14:01:19;12;12;
28647;PMS5003;17137;51.494;-0.262;2023-02-21T14:02:27;12;12;
28647;PMS5003;17137;51.494;-0.262;2023-02-21T14:02:58;12;12;
28647;PMS5003;17137;51.494;-0.262;2023-02-21T14:03:32;12;12;
28647;PMS5003;17137;51.494;-0.262;2023-02-21T14:04:48;12;12;
28647;PMS5003;17137;51.494;-0.262;2023-02-21T14:06:14;12;12;
28647;PMS5003;17137;51.494;-0.262;2023-02-21T14:06:54;13;13;
28647;PMS5003;17137;51.494;-0.262;2023-02-21T14:07:59;13;13;
28647;PMS5003;17137;51.494;-0.262;2023-02-21T14:08:31;13;13;
28647;PMS5003;17137;51.494;-0.262;2023-02-21T14:09:06;15;13;
28647;PMS5003;17137;51.494;-0.262;2023-02-21T14:09:41;15;13;
28647;PMS5003;17137;51.494;-0.262;2023-02-21T14:10:18;15;13;
28647;PMS5003;17137;51.494;-0.262;2023-02-21T14:10:55;15;13;
28647;PMS5003;17137;51.494;-0.262;2023-02-21T14:11:45;15;13;
28647;PMS5003;17137;51.494;-0.262;2023-02-21T14:12:19;15;13;
28647;PMS5003;17137;51.494;-0.262;2023-02-21T14:12:55;14;13;
28647;PMS5003;17137;51.494;-0.262;2023-02-21T14:13:30;14;13;
28647;PMS5003;17137;51.494;-0.262;2023-02-21T14:14:05;14;13;
28647;PMS5003;17137;51.494;-0.262;2023-02-21T14:14:49;14;12;
28647;PMS5003;17137;51.494;-0.262;2023-02-21T14:15:36;14;12;
28647;PMS5003;17137;51.494;-0.262;2023-02-21T14:16:15;14;12;
28647;PMS5003;17137;51.494;-0.262;2023-02-21T14:16:51;14;12;
28647;PMS5003;17137;51.494;-0.262;2023-02-21T14:17:26;14;12;
28647;PMS5003;17137;51.494;-0.262;2023-02-21T14:17:58;14;12;
28647;PMS5003;17137;51.494;-0.262;2023-02-21T14:18:30;15;13;
28647;PMS5003;17137;51.494;-0.262;2023-02-21T14:19:09;15;13;
28647;PMS5003;17137;51.494;-0.262;2023-02-21T14:19:47;15;13;
28647;PMS5003;17137;51.494;-0.262;2023-02-21T14:20:19;14;13;
28647;PMS5003;17137;51.494;-0.262;2023-02-21T14:20:52;14;13;
28647;PMS5003;17137;51.494;-0.262;2023-02-21T14:21:26;14;13;
28647;PMS5003;17137;51.494;-0.262;2023-02-21T14:22:03;14;13;
28647;PMS5003;17137;51.494;-0.262;2023-02-21T14:22:40;14;13;
28647;PMS5003;17137;51.494;-0.262;2023-02-21T14:23:13;14;13;
28647;PMS5003;17137;51.494;-0.262;2023-02-21T14:23:50;15;13;
28647;PMS5003;17137;51.494;-0.262;2023-02-21T14:24:25;15;13;
28647;PMS5003;17137;51.494;-0.262;2023-02-21T14:25:03;15;13;
28647;PMS5003;17137;51.494;-0.262;2023-02-21T14:25:35;13;13;
28647;PMS5003;17137;51.494;-0.262;2023-02-21T14:26:06;13;13;
28647;PMS5003;17137;51.494;-0.262;2023-02-21T14:27:03;13;13;
28647;PMS5003;17137;51.494;-0.262;2023-02-21T14:27:58;14;14;
28647;PMS5003;17137;51.494;-0.262;2023-02-21T14:29:09;14;14;
28647;PMS5003;17137;51.494;-0.262;2023-02-21T14:29:45;14;14;
28647;PMS5003;17137;51.494;-0.262;2023-02-21T14:30:54;14;14;
28647;PMS5003;17137;51.494;-0.262;2023-02-21T14:31:48;14;14;
28647;PMS5003;17137;51.494;-0.262;2023-02-21T14:32:22;14;14;
28647;PMS5003;17137;51.494;-0.262;2023-02-21T14:33:07;15;14;
28647;PMS5003;17137;51.494;-0.262;2023-02-21T14:33:46;15;14;
28647;PMS5003;17137;51.494;-0.262;2023-02-21T14:34:20;15;14;
28647;PMS5003;17137;51.494;-0.262;2023-02-21T14:34:55;16;14;
28647;PMS5003;17137;51.494;-0.262;2023-02-21T14:35:30;16;14;
28647;PMS5003;17137;51.494;-0.262;2023-02-21T14:36:03;16;14;
28647;PMS5003;17137;51.494;-0.262;2023-02-21T14:36:37;16;14;
28647;PMS5003;17137;51.494;-0.262;2023-02-21T14:37:10;16;14;
28647;PMS5003;17137;51.494;-0.262;2023-02-21T14:37:51;16;14;
28647;PMS5003;17137;51.494;-0.262;2023-02-21T14:38:27;15;13;
28647;PMS5003;17137;51.494;-0.262;2023-02-21T14:39:01;15;13;
28647;PMS5003;17137;51.494;-0.262;2023-02-21T14:39:33;15;13;
28647;PMS5003;17137;51.494;-0.262;2023-02-21T14:40:15;16;14;
28647;PMS5003;17137;51.494;-0.262;2023-02-21T14:40:57;16;14;
28647;PMS5003;17137;51.494;-0.262;2023-02-21T14:41:37;16;14;
28647;PMS5003;17137;51.494;-0.262;2023-02-21T14:42:32;15;13;
28647;PMS5003;17137;51.494;-0.262;2023-02-21T14:43:20;15;13;
28647;PMS5003;17137;51.494;-0.262;2023-02-21T14:44:04;15;13;
28647;PMS5003;17137;51.494;-0.262;2023-02-21T14:44:49;15;13;
28647;PMS5003;17137;51.494;-0.262;2023-02-21T14:45:56;15;13;
28647;PMS5003;17137;51.494;-0.262;2023-02-21T14:46:46;15;13;
28647;PMS5003;17137;51.494;-0.262;2023-02-21T14:47:33;15;13;
28647;PMS5003;17137;51.494;-0.262;2023-02-21T14:48:24;15;13;
28647;PMS5003;17137;51.494;-0.262;2023-02-21T14:49:18;15;13;
28647;PMS5003;17137;51.494;-0.262;2023-02-21T14:50:09;13;10;
28647;PMS5003;17137;51.494;-0.262;2023-02-21T14:51:02;13;10;
28647;PMS5003;17137;51.494;-0.262;2023-02-21T14:51:59;13;10;
28647;PMS5003;17137;51.494;-0.262;2023-02-21T14:52:47;14;12;
28647;PMS5003;17137;51.494;-0.262;2023-02-21T14:54:43;14;12;
28647;PMS5003;17137;51.494;-0.262;2023-02-21T14:55:49;14;12;
28647;PMS5003;17137;51.494;-0.262;2023-02-21T14:56:39;13;12;
28647;PMS5003;17137;51.494;-0.262;2023-02-21T14:57:23;13;12;
28647;PMS5003;17137;51.494;-0.262;2023-02-21T14:58:47;13;12;
28647;PMS5003;17137;51.494;-0.262;2023-02-21T14:59:37;12;12;
28647;PMS5003;17137;51.494;-0.262;2023-02-21T15:00:23;12;12;
28647;PMS5003;17137;51.494;-0.262;2023-02-21T15:01:04;12;12;
28647;PMS5003;17137;51.494;-0.262;2023-02-21T15:01:45;14;12;
28647;PMS5003;17137;51.494;-0.262;2023-02-21T15:02:25;14;12;
28647;PMS5003;17137;51.494;-0.262;2023-02-21T15:03:00;14;12;
28647;PMS5003;17137;51.494;-0.262;2023-02-21T15:03:41;14;12;
28647;PMS5003;17137;51.494;-0.262;2023-02-21T15:04:17;14;12;
28647;PMS5003;17137;51.494;-0.262;2023-02-21T15:04:54;14;12;
28647;PMS5003;17137;51.494;-0.262;2023-02-21T15:05:30;14;12;
28647;PMS5003;17137;51.494;-0.262;2023-02-21T15:06:05;14;12;
28647;PMS5003;17137;51.494;-0.262;2023-02-21T15:06:40;14;12;
28647;PMS5003;17137;51.494;-0.262;2023-02-21T15:07:16;15;13;
28647;PMS5003;17137;51.494;-0.262;2023-02-21T15:07:51;15;13;
28647;PMS5003;17137;51.494;-0.262;2023-02-21T15:08:28;15;13;
28647;PMS5003;17137;51.494;-0.262;2023-02-21T15:09:10;16;14;
28647;PMS5003;17137;51.494;-0.262;2023-02-21T15:09:42;16;14;
28647;PMS5003;17137;51.494;-0.262;2023-02-21T15:10:14;16;14;